createdAt,value
2022-09-23T00:01:22.419Z,2.47
2022-09-23T00:03:50.445Z,4.25
2022-09-23T00:06:24.012Z,4.28
2022-09-23T00:08:52.451Z,4.20
2022-09-23T00:11:26.463Z,3.50
2022-09-23T00:13:58.735Z,3.80
2022-09-23T00:16:48.214Z,4.45
2022-09-23T00:19:16.290Z,5.30
2022-09-23T00:21:43.836Z,5.15
2022-09-23T00:24:11.366Z,5.28
2022-09-23T00:26:39.098Z,5.93
2022-09-23T00:29:06.844Z,6.07
2022-09-23T00:31:34.279Z,5.68
2022-09-23T00:34:02.462Z,6.50
2022-09-23T00:36:32.205Z,6.45
2022-09-23T00:39:00.060Z,6.25
2022-09-23T00:41:27.892Z,6.65
2022-09-23T00:43:59.283Z,7.47
2022-09-23T00:46:40.035Z,6.63
2022-09-23T00:49:29.326Z,6.72
2022-09-23T00:52:10.110Z,6.78
2022-09-23T00:54:38.433Z,7.13
2022-09-23T00:57:06.966Z,6.55
2022-09-23T00:59:34.562Z,7.10
2022-09-23T01:02:03.907Z,7.10
2022-09-23T01:04:32.083Z,7.30
2022-09-23T01:06:59.593Z,6.28
2022-09-23T01:09:27.562Z,6.03
2022-09-23T01:12:10.899Z,6.82
2022-09-23T01:14:57.363Z,5.38
2022-09-23T01:18:21.259Z,5.65
2022-09-23T01:21:29.860Z,6.32
2022-09-23T01:24:34.333Z,5.85
2022-09-23T01:27:13.103Z,6.63
2022-09-23T01:30:05.780Z,6.03
2022-09-23T01:32:47.409Z,7.00
2022-09-23T01:35:42.963Z,6.63
2022-09-23T01:38:34.855Z,6.57
2022-09-23T01:41:31.554Z,8.10
2022-09-23T01:44:29.275Z,6.57
2022-09-23T01:47:38.127Z,6.38
2022-09-23T01:50:47.025Z,6.78
2022-09-23T01:53:39.568Z,6.93
2022-09-23T01:56:35.572Z,8.05
2022-09-23T01:59:17.850Z,7.45
2022-09-23T02:02:15.358Z,8.52
2022-09-23T02:05:07.991Z,7.60
2022-09-23T02:08:14.952Z,7.78
2022-09-23T02:10:52.154Z,7.18
2022-09-23T02:13:37.022Z,7.03
2022-09-23T02:16:18.441Z,7.13
2022-09-23T02:19:15.574Z,7.50
2022-09-23T02:22:18.956Z,6.28
2022-09-23T02:24:48.454Z,6.55
2022-09-23T02:28:28.247Z,6.80
2022-09-23T02:31:25.776Z,5.65
2022-09-23T02:34:04.185Z,6.15
2022-09-23T02:37:04.927Z,5.87
2022-09-23T02:39:50.892Z,6.30
2022-09-23T02:42:32.603Z,5.60
2022-09-23T02:45:00.158Z,7.85
2022-09-23T02:47:33.812Z,6.93
2022-09-23T02:50:02.143Z,6.72
2022-09-23T02:52:29.956Z,6.93
2022-09-23T02:54:58.024Z,7.13
2022-09-23T02:57:25.621Z,7.35
2022-09-23T02:59:53.550Z,7.40
2022-09-23T03:03:00.917Z,6.22
2022-09-23T03:05:32.884Z,6.35
2022-09-23T03:08:30.086Z,6.70
2022-09-23T03:11:11.303Z,6.82
2022-09-23T03:13:56.085Z,6.78
2022-09-23T03:17:01.506Z,6.45
2022-09-23T03:19:51.866Z,6.85
2022-09-23T03:22:35.454Z,5.88
2022-09-23T03:25:10.923Z,4.72
2022-09-23T03:27:42.465Z,7.00
2022-09-23T03:30:11.714Z,5.03
2022-09-23T03:32:44.625Z,6.38
2022-09-23T03:35:13.926Z,5.68
2022-09-23T03:37:53.466Z,6.30
2022-09-23T03:40:22.541Z,5.57
2022-09-23T03:42:51.274Z,5.35
2022-09-23T03:45:27.258Z,5.20
2022-09-23T03:47:55.099Z,4.82
2022-09-23T03:50:22.770Z,5.43
2022-09-23T03:52:50.627Z,4.90
2022-09-23T03:55:20.414Z,5.05
2022-09-23T03:57:48.697Z,4.88
2022-09-23T04:00:16.677Z,5.70
2022-09-23T04:02:44.878Z,5.10
2022-09-23T04:05:15.054Z,6.20
2022-09-23T04:07:42.730Z,6.13
2022-09-23T04:10:10.930Z,5.07
2022-09-23T04:12:38.840Z,4.57
2022-09-23T04:15:07.402Z,5.40
2022-09-23T04:17:35.259Z,5.75
2022-09-23T04:20:03.730Z,6.13
2022-09-23T04:22:33.499Z,5.75
2022-09-23T04:25:01.886Z,5.05
2022-09-23T04:27:31.294Z,5.38
2022-09-23T04:30:02.329Z,6.07
2022-09-23T04:32:30.092Z,5.45
2022-09-23T04:34:57.587Z,6.13
2022-09-23T04:37:25.438Z,6.00
2022-09-23T04:39:53.457Z,5.57
2022-09-23T04:42:20.980Z,5.88
2022-09-23T04:44:48.806Z,6.65
2022-09-23T04:47:16.394Z,5.55
2022-09-23T04:49:43.894Z,5.38
2022-09-23T04:52:12.101Z,5.32
2022-09-23T04:54:41.644Z,7.30
2022-09-23T04:59:39.082Z,6.50
2022-09-23T05:02:06.591Z,6.82
2022-09-23T05:04:34.241Z,6.78
2022-09-23T05:07:03.416Z,7.07
2022-09-23T05:09:31.195Z,6.95
2022-09-23T05:11:58.899Z,7.10
2022-09-23T05:14:26.848Z,7.32
2022-09-23T05:16:54.394Z,6.78
2022-09-23T05:19:22.278Z,7.30
2022-09-23T05:21:50.018Z,7.40
2022-09-23T05:24:17.818Z,6.95
2022-09-23T05:26:45.569Z,7.72
2022-09-23T05:29:13.404Z,7.90
2022-09-23T05:31:41.256Z,7.72
2022-09-23T05:34:09.014Z,6.60
2022-09-23T05:36:38.919Z,6.53
2022-09-23T05:39:08.562Z,6.70
2022-09-23T05:41:36.791Z,5.80
2022-09-23T05:44:05.043Z,6.57
2022-09-23T05:46:33.683Z,6.65
2022-09-23T05:49:03.552Z,6.45
2022-09-23T05:51:33.917Z,7.53
2022-09-23T05:54:04.193Z,7.25
2022-09-23T05:56:33.808Z,7.22
2022-09-23T05:59:03.534Z,6.03
2022-09-23T06:01:35.364Z,6.88
2022-09-23T06:04:06.145Z,6.32
2022-09-23T06:06:38.145Z,7.13
2022-09-23T06:09:10.001Z,8.30
2022-09-23T06:11:37.728Z,7.25
2022-09-23T06:14:05.457Z,8.18
2022-09-23T06:16:35.790Z,7.85
2022-09-23T06:19:07.117Z,7.57
2022-09-23T06:21:38.549Z,8.32
2022-09-23T06:24:10.015Z,8.13
2022-09-23T06:26:38.802Z,7.70
2022-09-23T06:29:11.956Z,7.88
2022-09-23T06:31:43.724Z,8.23
2022-09-23T06:34:14.596Z,8.30
2022-09-23T06:36:46.195Z,7.22
2022-09-23T06:39:15.520Z,7.35
2022-09-23T06:41:45.227Z,7.13
2022-09-23T06:44:15.212Z,7.22
2022-09-23T06:46:43.354Z,7.78
2022-09-23T06:49:12.221Z,6.18
2022-09-23T06:51:40.269Z,6.65
2022-09-23T06:54:08.357Z,7.00
2022-09-23T06:56:39.069Z,7.03
2022-09-23T06:59:10.666Z,5.75
2022-09-23T07:01:39.074Z,6.32
2022-09-23T07:04:07.832Z,6.78
2022-09-23T07:06:37.196Z,6.68
2022-09-23T07:09:07.365Z,5.57
2022-09-23T07:11:35.178Z,4.90
2022-09-23T07:14:03.365Z,4.78
2022-09-23T07:16:32.904Z,6.13
2022-09-23T07:19:00.435Z,5.68
2022-09-23T07:21:28.007Z,5.82
2022-09-23T07:23:58.257Z,5.78
2022-09-23T07:26:26.658Z,5.30
2022-09-23T07:28:56.704Z,5.78
2022-09-23T07:31:37.241Z,5.53
2022-09-23T07:34:10.347Z,5.65
2022-09-23T07:36:41.080Z,5.30
2022-09-23T07:39:12.408Z,6.18
2022-09-23T07:41:44.738Z,5.78
2022-09-23T07:44:12.560Z,5.57
2022-09-23T07:46:40.351Z,5.55
2022-09-23T07:49:08.854Z,4.90
2022-09-23T07:51:39.108Z,4.90
2022-09-23T07:54:11.214Z,5.28
2022-09-23T07:56:40.141Z,5.43
2022-09-23T07:59:11.581Z,4.87
2022-09-23T08:01:44.270Z,4.18
2022-09-23T08:04:22.153Z,5.20
2022-09-23T08:06:54.217Z,4.32
2022-09-23T08:09:27.070Z,5.28
2022-09-23T08:11:55.300Z,5.57
2022-09-23T08:14:22.857Z,4.78
2022-09-23T08:16:51.904Z,4.78
2022-09-23T08:19:20.234Z,4.65
2022-09-23T08:21:47.962Z,4.32
2022-09-23T08:24:19.162Z,4.18
2022-09-23T08:26:48.199Z,4.57
2022-09-23T08:29:18.996Z,3.95
2022-09-23T08:31:47.193Z,4.80
2022-09-23T08:34:15.627Z,4.10
2022-09-23T08:36:43.611Z,4.20
2022-09-23T08:39:15.880Z,3.90
2022-09-23T08:42:08.260Z,4.68
2022-09-23T08:44:52.960Z,3.90
2022-09-23T08:47:47.180Z,4.47
2022-09-23T08:50:31.976Z,4.13
2022-09-23T08:53:14.166Z,4.97
2022-09-23T08:55:50.966Z,4.65
2022-09-23T08:58:40.591Z,4.78
2022-09-23T09:03:57.016Z,4.63
2022-09-23T09:06:53.669Z,4.90
2022-09-23T09:09:33.895Z,4.85
2022-09-23T09:12:20.447Z,4.63
2022-09-23T09:15:27.411Z,4.18
2022-09-23T09:18:10.242Z,4.13
2022-09-23T09:20:57.406Z,4.20
2022-09-23T09:23:50.511Z,4.50
2022-09-23T09:26:35.333Z,3.88
2022-09-23T09:29:33.752Z,3.72
2022-09-23T09:32:22.968Z,4.30
2022-09-23T09:34:58.585Z,2.42
2022-09-23T09:37:37.565Z,2.47
2022-09-23T09:40:06.586Z,2.83
2022-09-23T09:42:40.438Z,3.33
2022-09-23T09:45:24.255Z,3.35
2022-09-23T09:48:20.843Z,3.45
2022-09-23T09:50:53.928Z,3.95
2022-09-23T09:53:35.908Z,3.55
2022-09-23T09:56:08.815Z,2.90
2022-09-23T09:58:48.616Z,2.97
2022-09-23T10:01:32.765Z,2.50
2022-09-23T10:04:33.969Z,2.63
2022-09-23T10:07:16.716Z,1.48
2022-09-23T10:09:51.397Z,1.63
2022-09-23T10:12:21.515Z,0.85
2022-09-23T10:14:52.573Z,1.50
2022-09-23T10:17:31.651Z,0.98
2022-09-23T10:22:42.891Z,0.30
2022-09-23T10:25:21.211Z,0.73
2022-09-23T10:27:48.748Z,1.50
2022-09-23T10:30:25.909Z,0.70
2022-09-23T10:32:56.931Z,1.30
2022-09-23T10:35:26.654Z,0.82
2022-09-23T10:37:57.732Z,0.88
2022-09-23T10:41:02.295Z,1.00
2022-09-23T10:44:16.692Z,0.85
2022-09-23T10:47:14.593Z,0.60
2022-09-23T10:50:14.579Z,1.05
2022-09-23T10:53:05.092Z,1.15
2022-09-23T10:56:05.161Z,1.13
2022-09-23T10:59:14.755Z,1.05
2022-09-23T11:02:00.762Z,0.90
2022-09-23T11:05:03.533Z,0.88
2022-09-23T11:08:37.338Z,1.20
2022-09-23T11:11:40.701Z,1.30
2022-09-23T11:14:19.647Z,1.38
2022-09-23T11:19:56.027Z,1.17
2022-09-23T11:22:37.453Z,1.13
2022-09-23T11:25:30.335Z,1.17
2022-09-23T11:28:23.574Z,1.40
2022-09-23T11:31:19.553Z,1.38
2022-09-23T11:34:08.219Z,1.02
2022-09-23T11:36:50.707Z,1.70
2022-09-23T11:39:42.743Z,0.90
2022-09-23T11:42:27.204Z,0.57
2022-09-23T11:45:08.320Z,0.63
2022-09-23T11:47:48.902Z,0.68
2022-09-23T11:50:32.842Z,1.00
2022-09-23T11:53:19.438Z,1.05
2022-09-23T11:56:03.913Z,1.10
2022-09-23T11:59:03.016Z,1.38
2022-09-23T12:01:45.693Z,2.08
2022-09-23T12:04:56.453Z,0.77
2022-09-23T12:07:48.818Z,1.23
2022-09-23T12:10:17.473Z,0.98
2022-09-23T12:12:49.433Z,0.93
2022-09-23T12:15:52.658Z,1.02
2022-09-23T12:18:51.144Z,0.70
2022-09-23T12:21:50.945Z,0.75
2022-09-23T12:24:41.181Z,1.00
2022-09-23T12:27:36.872Z,1.60
2022-09-23T12:30:18.497Z,1.08
2022-09-23T12:32:49.499Z,1.17
2022-09-23T12:35:41.302Z,1.35
2022-09-23T12:38:49.640Z,1.83
2022-09-23T12:41:37.724Z,1.73
2022-09-23T12:44:11.158Z,1.20
2022-09-23T12:46:46.108Z,1.30
2022-09-23T12:49:28.952Z,0.88
2022-09-23T12:52:18.622Z,1.23
2022-09-23T12:54:50.499Z,1.40
2022-09-23T12:57:36.756Z,1.00
2022-09-23T13:00:12.925Z,0.80
2022-09-23T13:03:22.312Z,1.58
2022-09-23T13:06:19.322Z,0.90
2022-09-23T13:08:49.506Z,0.90
2022-09-23T13:11:27.792Z,0.50
2022-09-23T13:14:00.695Z,0.90
2022-09-23T13:16:37.105Z,1.05
2022-09-23T13:19:27.790Z,1.05
2022-09-23T13:22:07.712Z,0.80
2022-09-23T13:24:43.058Z,0.90
2022-09-23T13:27:23.070Z,1.15
2022-09-23T13:30:27.101Z,1.00
2022-09-23T13:33:14.323Z,1.25
2022-09-23T13:35:53.157Z,0.88
2022-09-23T13:38:28.201Z,1.00
2022-09-23T13:41:18.115Z,0.77
2022-09-23T13:43:59.276Z,1.25
2022-09-23T13:46:35.662Z,1.25
2022-09-23T13:49:03.786Z,1.00
2022-09-23T13:51:35.177Z,1.33
2022-09-23T13:54:05.217Z,1.42
2022-09-23T13:56:35.391Z,1.45
2022-09-23T13:59:25.918Z,1.63
2022-09-23T14:02:07.068Z,1.15
2022-09-23T14:04:34.745Z,1.58
2022-09-23T14:07:04.093Z,0.90
2022-09-23T14:09:34.440Z,1.65
2022-09-23T14:12:04.478Z,1.17
2022-09-23T14:14:37.256Z,1.15
2022-09-23T14:17:07.575Z,0.98
2022-09-23T14:19:37.105Z,0.95
2022-09-23T14:22:09.251Z,0.70
2022-09-23T14:24:41.127Z,1.48
2022-09-23T14:27:22.534Z,1.48
2022-09-23T14:29:50.980Z,0.70
2022-09-23T14:32:24.274Z,0.93
2022-09-23T14:35:04.584Z,0.60
2022-09-23T14:37:55.515Z,0.57
2022-09-23T14:40:50.780Z,1.20
2022-09-23T14:43:26.095Z,0.70
2022-09-23T14:45:59.014Z,0.50
2022-09-23T14:48:34.616Z,0.50
2022-09-23T14:51:08.669Z,0.85
2022-09-23T14:53:48.751Z,1.27
2022-09-23T14:56:22.598Z,1.42
2022-09-23T14:58:57.190Z,1.23
2022-09-23T15:01:31.236Z,0.73
2022-09-23T15:04:15.282Z,0.90
2022-09-23T15:07:02.825Z,1.10
2022-09-23T15:09:40.869Z,1.02
2022-09-23T15:12:21.863Z,1.10
2022-09-23T15:14:55.263Z,1.40
2022-09-23T15:17:38.423Z,1.80
2022-09-23T15:20:28.079Z,2.25
2022-09-23T15:22:56.566Z,1.77
2022-09-23T15:25:40.128Z,1.77
2022-09-23T15:28:10.876Z,2.60
2022-09-23T15:30:39.539Z,2.38
2022-09-23T15:33:09.537Z,2.10
2022-09-23T15:35:40.804Z,1.73
2022-09-23T15:38:09.816Z,1.73
2022-09-23T15:40:39.547Z,1.90
2022-09-23T15:43:21.169Z,2.33
2022-09-23T15:45:53.463Z,1.80
2022-09-23T15:48:43.697Z,2.92
2022-09-23T15:51:15.583Z,2.53
2022-09-23T15:53:43.366Z,3.25
2022-09-23T15:56:10.820Z,2.50
2022-09-23T15:58:38.729Z,4.50
2022-09-23T16:01:06.559Z,5.43
2022-09-23T16:03:34.232Z,9.55
2022-09-23T16:06:03.268Z,7.45
2022-09-23T16:11:01.298Z,13.88
2022-09-23T16:13:29.155Z,14.98
2022-09-23T16:15:56.709Z,15.30
2022-09-23T16:18:24.464Z,14.23
2022-09-23T16:20:52.293Z,14.25
2022-09-23T16:23:35.882Z,12.52
2022-09-23T16:26:29.625Z,10.85
2022-09-23T16:28:58.979Z,11.55
2022-09-23T16:31:31.430Z,8.65
2022-09-23T16:34:02.553Z,11.18
2022-09-23T16:36:41.182Z,12.60
2022-09-23T16:39:12.789Z,15.18
2022-09-23T16:41:42.881Z,10.85
2022-09-23T16:44:12.506Z,16.48
2022-09-23T16:46:43.007Z,14.18
2022-09-23T16:49:14.094Z,18.92
2022-09-23T16:51:42.328Z,18.25
2022-09-23T16:54:13.572Z,15.10
2022-09-23T16:56:44.460Z,3.47
2022-09-23T16:59:16.757Z,3.47
2022-09-23T17:02:03.977Z,6.47
2022-09-23T17:04:31.868Z,13.63
2022-09-23T17:06:59.450Z,9.48
2022-09-23T17:09:30.225Z,6.35
2022-09-23T17:12:23.328Z,2.75
2022-09-23T17:14:52.518Z,2.90
2022-09-23T17:19:47.722Z,7.88
2022-09-23T17:22:15.202Z,5.65
2022-09-23T17:24:43.196Z,7.20
2022-09-23T17:27:11.002Z,8.18
2022-09-23T17:29:38.567Z,10.48
2022-09-23T17:32:06.364Z,15.93
2022-09-23T17:34:34.958Z,12.20
2022-09-23T17:37:02.647Z,8.23
2022-09-23T17:39:31.736Z,6.70
2022-09-23T17:41:59.310Z,6.18
2022-09-23T17:44:27.022Z,5.53
2022-09-23T17:46:56.943Z,6.28
2022-09-23T17:49:24.701Z,7.32
2022-09-23T17:51:52.312Z,8.45
2022-09-23T17:54:20.359Z,10.23
2022-09-23T17:56:47.854Z,9.65
2022-09-23T17:59:15.494Z,8.85
2022-09-23T18:01:43.327Z,6.72
2022-09-23T18:04:12.761Z,9.63
2022-09-23T18:06:40.401Z,9.93
2022-09-23T18:09:09.401Z,13.63
2022-09-23T18:11:43.585Z,19.55
2022-09-23T18:14:26.934Z,13.38
2022-09-23T18:16:55.044Z,10.35
2022-09-23T18:19:24.717Z,10.57
2022-09-23T18:21:56.404Z,12.95
2022-09-23T18:24:33.353Z,17.85
2022-09-23T18:27:01.993Z,13.18
2022-09-23T18:29:29.867Z,7.35
2022-09-23T18:31:59.306Z,12.43
2022-09-23T18:34:27.426Z,13.85
2022-09-23T18:36:56.245Z,12.88
2022-09-23T18:39:23.823Z,11.95
2022-09-23T18:41:51.324Z,11.05
2022-09-23T18:44:20.155Z,10.82
2022-09-23T18:46:47.736Z,9.50
2022-09-23T18:49:34.148Z,10.23
2022-09-23T18:52:02.515Z,9.90
2022-09-23T18:54:30.443Z,14.50
2022-09-23T18:56:59.322Z,12.32
2022-09-23T18:59:33.568Z,13.98
2022-09-23T19:02:01.527Z,12.20
2022-09-23T19:04:29.635Z,11.82
2022-09-23T19:06:58.010Z,9.95
2022-09-23T19:09:26.794Z,9.65
2022-09-23T19:11:54.663Z,10.15
2022-09-23T19:14:22.391Z,9.93
2022-09-23T19:16:51.003Z,8.95
2022-09-23T19:19:18.922Z,7.93
2022-09-23T19:21:49.397Z,8.63
2022-09-23T19:24:20.121Z,8.10
2022-09-23T19:26:50.359Z,7.45
2022-09-23T19:29:19.860Z,10.65
2022-09-23T19:34:19.755Z,9.77
2022-09-23T19:36:48.059Z,9.13
2022-09-23T19:39:28.340Z,9.13
2022-09-23T19:41:56.276Z,10.13
2022-09-23T19:44:25.424Z,13.00
2022-09-23T19:46:56.763Z,13.93
2022-09-23T19:49:26.203Z,17.70
2022-09-23T19:51:56.095Z,14.10
2022-09-23T19:54:26.723Z,16.05
2022-09-23T19:56:54.988Z,8.90
2022-09-23T19:59:22.524Z,8.30
2022-09-23T20:01:50.208Z,4.88
2022-09-23T20:04:18.124Z,3.28
2022-09-23T20:06:46.401Z,2.85
2022-09-23T20:09:14.443Z,4.15
2022-09-23T20:11:43.139Z,3.33
2022-09-23T20:14:11.951Z,4.22
2022-09-23T20:16:40.600Z,3.55
2022-09-23T20:19:09.932Z,3.43
2022-09-23T20:21:37.675Z,4.97
2022-09-23T20:24:06.994Z,4.50
2022-09-23T20:26:53.905Z,3.65
2022-09-23T20:29:21.852Z,3.00
2022-09-23T20:31:49.694Z,3.10
2022-09-23T20:34:18.793Z,2.72
2022-09-23T20:36:46.338Z,2.47
2022-09-23T20:39:14.748Z,2.88
2022-09-23T20:41:42.577Z,2.60
2022-09-23T20:44:12.577Z,3.28
2022-09-23T20:46:48.648Z,4.03
2022-09-23T20:49:23.405Z,3.20
2022-09-23T20:51:54.385Z,3.60
2022-09-23T20:54:29.805Z,4.25
2022-09-23T21:00:21.913Z,3.13
2022-09-23T21:02:54.897Z,2.77
2022-09-23T21:05:52.154Z,2.50
2022-09-23T21:08:39.909Z,2.42
2022-09-23T21:11:29.172Z,2.72
2022-09-23T21:14:07.543Z,2.80
2022-09-23T21:17:04.127Z,2.63
2022-09-23T21:19:41.661Z,2.55
2022-09-23T21:22:16.966Z,3.05
2022-09-23T21:25:26.238Z,2.78
2022-09-23T21:28:21.019Z,2.88
2022-09-23T21:31:33.915Z,3.35
2022-09-23T21:34:16.744Z,2.58
2022-09-23T21:36:47.966Z,2.92
2022-09-23T21:39:17.214Z,2.90
2022-09-23T21:41:54.678Z,2.47
2022-09-23T21:44:32.993Z,2.47
2022-09-23T21:47:05.858Z,2.40
2022-09-23T21:50:29.745Z,2.30
2022-09-23T21:53:02.838Z,1.95
2022-09-23T21:56:28.862Z,2.35
2022-09-23T21:59:01.410Z,2.55
2022-09-23T22:01:39.469Z,2.42
2022-09-23T22:04:19.421Z,1.67
2022-09-23T22:06:49.467Z,1.98
2022-09-23T22:09:25.373Z,2.00
2022-09-23T22:12:07.882Z,2.20
2022-09-23T22:14:36.428Z,1.83
2022-09-23T22:17:06.487Z,2.55
2022-09-23T22:19:40.209Z,1.90
2022-09-23T22:22:13.244Z,2.08
2022-09-23T22:24:46.450Z,1.95
2022-09-23T22:27:19.172Z,1.67
2022-09-23T22:30:05.528Z,1.60
2022-09-23T22:32:44.127Z,1.73
2022-09-23T22:35:17.934Z,1.80
2022-09-23T22:37:47.412Z,2.08
2022-09-23T22:40:16.015Z,2.70
2022-09-23T22:42:44.382Z,2.50
2022-09-23T22:45:13.489Z,2.10
2022-09-23T22:47:45.513Z,3.50
2022-09-23T22:50:15.359Z,1.73
2022-09-23T22:52:43.365Z,2.00
2022-09-23T22:55:12.125Z,2.45
2022-09-23T22:57:39.917Z,2.45
2022-09-23T23:00:09.409Z,2.20
2022-09-23T23:02:37.006Z,2.10
2022-09-23T23:05:05.244Z,2.78
2022-09-23T23:07:36.236Z,2.45
2022-09-23T23:10:04.752Z,3.13
2022-09-23T23:12:33.624Z,3.10
2022-09-23T23:15:01.089Z,2.80
2022-09-23T23:17:29.879Z,3.63
2022-09-23T23:19:58.036Z,3.50
2022-09-23T23:22:28.547Z,3.90
2022-09-23T23:24:56.172Z,4.13
2022-09-23T23:27:23.950Z,3.85
2022-09-23T23:29:51.512Z,2.63
2022-09-23T23:32:18.971Z,2.88
2022-09-23T23:34:46.972Z,2.38
2022-09-23T23:37:17.639Z,2.65
2022-09-23T23:39:48.005Z,2.88
2022-09-23T23:42:15.619Z,2.97
2022-09-23T23:44:43.238Z,2.83
2022-09-23T23:47:11.129Z,3.38
2022-09-23T23:49:38.871Z,3.45
2022-09-23T23:52:06.437Z,3.47
2022-09-23T23:54:34.253Z,3.50
2022-09-23T23:57:01.762Z,3.45
2022-09-23T23:59:29.235Z,2.97
